• Join FlightAware (Why Join?)
  • Login
  • US Flag 
11:04PM EDT


 

Airport Tracker/Info


-or-


 

Live Flight TrackerFlight Track Log ✈ SWA267 ✈ 26-Apr-2013 ✈ KORF - KBWI

Flight Track Log - Related Links

Times and Time Zones

All times are in EDT time to prevent confusion due to time zone crossing. See the SWA267 flight status page for this flight to view local times or setup timezone preferences in your user account.

Time Position Orientation Groundspeed Altitude Reporting Facility
EDT Latitude Longitude Course Direction KTS MPH feet Rate Location/Type
12:35PM 36.9308 -76.1686 36° Northeast 180 207 1,700  Level Washington Center
12:36PM 36.9831 -76.1406 23° Northeast 230 265 4,400 2,460 Climbing Washington Center
12:37PM 37.0183 -76.1981 308° West 262 302 6,600 2,400 Climbing Washington Center
12:38PM 37.0178 -76.2839 270° West 255 293 9,100 1,440 Climbing Washington Center
12:39PM 37.0211 -76.4086 272° West 300 345 10,100 1,080 Climbing Washington Center
12:40PM 37.0683 -76.5108 300° West 316 364 11,700 1,980 Climbing Washington Center
12:41PM 37.1156 -76.6258 297° West 341 392 14,000 2,100 Climbing Washington Center
12:42PM 37.1644 -76.7361 299° West 352 405 16,000 960 Climbing Washington Center
12:43PM 37.2114 -76.8461 298° West 357 411 16,000  Level Washington Center
12:44PM 37.2642 -76.9722 298° West 368 423 16,000  Level Washington Center
12:45PM 37.3150 -77.0856 299° West 368 423 16,000  Level Washington Center
12:46PM 37.3806 -77.1836 310° West 376 433 16,000  Level Washington Center
12:47PM 37.4567 -77.2689 318° Northwest 371 427 16,000  Level Washington Center
12:48PM 37.5519 -77.3181 338° Northwest 360 414 16,000  Level Washington Center
12:49PM 37.6564 -77.2917 11° North 350 403 16,000  Level Washington Center
12:50PM 37.7547 -77.2703 10° North 350 403 16,000  Level Washington Center
12:51PM 37.8469 -77.2486 11° North 345 397 16,000  Level Washington Center
12:52PM 37.9411 -77.2294 North 345 397 16,000  Level Washington Center
12:53PM 38.0372 -77.2106 North 345 397 16,000  Level Washington Center
12:54PM 38.1231 -77.1939 North 345 397 16,000  Level Washington Center
12:55PM 38.2275 -77.1669 11° North 350 403 16,000 -360 Level Washington Center
12:56PM 38.3111 -77.1556 North 350 403 15,400 -540 Descending Washington Center
12:57PM 38.4033 -77.1150 19° North 350 403 15,000 -1,140 Descending Washington Center
12:58PM 38.4733 -77.0289 44° Northeast 334 384 13,100 -1,560 Descending Washington Center
12:59PM 38.5431 -76.9428 44° Northeast 345 397 12,000 -1,320 Descending Washington Center
01:00PM 38.6106 -76.8617 43° Northeast 333 383 10,600 -1,080 Descending Washington Center
01:01PM 38.6719 -76.7856 44° Northeast 319 367 9,900 -1,080 Descending Washington Center
01:04PM 38.7833 -76.5833 55° Northeast 276 318 7,000 -1,380 Descending Potomac TRACON
01:05PM 38.8333 -76.5167 46° Northeast 265 305 5,400 -1,380 Descending Potomac TRACON
01:06PM 38.9000 -76.5167 360° North 243 280 4,300 -960 Descending Potomac TRACON
01:07PM 38.9667 -76.5167 360° North 236 272 3,500 -720 Descending Potomac TRACON
01:08PM 39.0167 -76.5333 345° North 219 252 2,900 -480 Descending Potomac TRACON
01:09PM 39.0667 -76.5667 333° Northwest 213 245 2,600 -780 Descending Potomac TRACON
01:10PM 39.1167 -76.6167 322° Northwest 193 222 1,400 -1,080 Descending Potomac TRACON
01:11PM 39.1500 -76.6500 322° Northwest 143 165 500 -900 Descending Potomac TRACON
01:13PM 39.1667 -76.6667 339° North  Level FlightAware Approximate
01:20PM 39.1754 -76.6683 339° North  Level Estimated
01:21PM 39.1754 -76.6683 339° North  Level Estimated
01:22PM 39.1754 -76.6683 339° North  Level Estimated
01:23PM 39.1754 -76.6683 339° North  Level Estimated